Flight Track Log - Related Links

Times and Time Zones

All times are in EDT time to prevent confusion due to time zone crossing. See the UAL5911 flight status page for this flight to view local times or setup timezone preferences in your user account.

Time Position Orientation Groundspeed Altitude Reporting Facility
EDT Latitude Longitude Course Direction KTS MPH feet Rate Location/Type
Tue 03:45:58 PM 40.7394 -89.7461 359° North 214 246 5,000  Level Chicago Center
Tue 03:46:59 PM 40.8117 -89.7058 23° Northeast 243 280 7,000 1,951 Climbing Chicago Center
Tue 03:48:01 PM 40.8686 -89.6256 47° Northeast 290 334 9,000 1,784 Climbing Chicago Center
Tue 03:50:00 PM 41.1381 -89.5853 North  Level FlightAware Approximate
Tue 03:50:04 PM 40.9831 -89.4281 52° Northeast 345 397 12,500  Level Chicago Center
Tue 03:51:06 PM 41.0458 -89.3139 54° Northeast 376 433 13,600 806 Climbing Chicago Center
Tue 03:53:10 PM 41.1942 -89.0467 54° Northeast 429 494 15,000 454 Climbing Chicago Center
Tue 03:54:11 PM 41.2661 -88.9161 54° Northeast 437 503 15,000 -488 Level Chicago Center
Tue 03:55:13 PM 41.3356 -88.7875 54° Northeast 432 497 14,000 -1,548 Descending Chicago Center
Tue 03:56:15 PM 41.4050 -88.6608 54° Northeast 425 489 11,800 -1,500 Descending Chicago Center
Tue 03:57:17 PM 41.4642 -88.5511 54° Northeast 363 418 10,900 -435 Descending Chicago Center
Tue 03:58:19 PM 41.5197 -88.4508 53° Northeast 337 388 10,900 -435 Level Chicago Center
Tue 03:59:21 PM 41.5878 -88.3369 51° Northeast 325 374 10,000 -1,024 Descending Chicago Center
Tue 04:00:22 PM 41.6475 -88.2500 47° Northeast 318 366 8,800 -1,415 Descending Chicago Center
Tue 04:01:24 PM 41.7153 -88.1822 37° Northeast 305 351 7,100 -1,597 Descending Chicago Center
Tue 04:02:26 PM 41.7733 -88.1069 44° Northeast 290 334 5,500 -1,306 Descending Chicago Center
Tue 04:03:28 PM 41.8294 -88.0467 39° Northeast 274 315 4,400 -1,306 Descending Chicago Center
Tue 04:04:30 PM 41.8764 -87.9900 42° Northeast 249 287 2,800 -1,551 Descending Chicago Center
Tue 04:04:57 PM 41.9000 -87.9667 36° Northeast 211 243 2,100 -1,103 Descending Chicago TRACON
Tue 04:05:57 PM 41.9333 -87.9167 48° Northeast 138 159 1,200 -900 Descending Chicago TRACON
Tue 04:08:00 PM 41.9667 -87.9000 44° Northeast  Level FlightAware Approximate

Login

Don't have an account? Register now (free) for customized features, flight alerts, and more!